sensor_id;sensor_type;location;lat;lon;timestamp;pressure;altitude;pressure_sealevel;temperature;humidity
43741;BME280;29352;48.708;9.290;2023-04-05T00:01:31;98384.69;;;-7.31;67.49
43741;BME280;29352;48.708;9.290;2023-04-05T00:03:58;98381.38;;;-7.19;66.79
43741;BME280;29352;48.708;9.290;2023-04-05T00:06:26;98384.16;;;-7.07;67.56
43741;BME280;29352;48.708;9.290;2023-04-05T00:08:54;98383.41;;;-7.38;68.77
43741;BME280;29352;48.708;9.290;2023-04-05T00:11:22;98385.06;;;-7.37;65.95
43741;BME280;29352;48.708;9.290;2023-04-05T00:13:48;98381.56;;;-7.36;65.53
43741;BME280;29352;48.708;9.290;2023-04-05T00:16:18;98376.72;;;-6.99;64.72
43741;BME280;29352;48.708;9.290;2023-04-05T00:18:45;98379.03;;;-7.23;65.97
43741;BME280;29352;48.708;9.290;2023-04-05T00:21:20;98377.66;;;-7.29;65.51
43741;BME280;29352;48.708;9.290;2023-04-05T00:23:47;98372.09;;;-7.37;68.19
43741;BME280;29352;48.708;9.290;2023-04-05T00:26:15;98365.25;;;-7.38;68.60
43741;BME280;29352;48.708;9.290;2023-04-05T00:28:41;98360.59;;;-7.47;68.69
43741;BME280;29352;48.708;9.290;2023-04-05T00:31:06;98359.09;;;-7.51;68.86
43741;BME280;29352;48.708;9.290;2023-04-05T00:33:32;98358.41;;;-7.39;67.79
43741;BME280;29352;48.708;9.290;2023-04-05T00:36:10;98359.50;;;-7.57;68.27
43741;BME280;29352;48.708;9.290;2023-04-05T00:38:37;98351.66;;;-7.72;68.91
43741;BME280;29352;48.708;9.290;2023-04-05T00:41:03;98353.06;;;-7.66;68.80
43741;BME280;29352;48.708;9.290;2023-04-05T00:43:28;98348.75;;;-7.37;68.74
43741;BME280;29352;48.708;9.290;2023-04-05T00:45:55;98356.84;;;-7.72;69.58
43741;BME280;29352;48.708;9.290;2023-04-05T00:48:22;98354.03;;;-8.13;71.59
43741;BME280;29352;48.708;9.290;2023-04-05T00:50:49;98353.66;;;-7.91;70.08
43741;BME280;29352;48.708;9.290;2023-04-05T00:53:18;98343.88;;;-7.86;69.89
43741;BME280;29352;48.708;9.290;2023-04-05T00:55:48;98349.88;;;-7.86;70.13
43741;BME280;29352;48.708;9.290;2023-04-05T00:58:16;98344.78;;;-7.87;70.57
43741;BME280;29352;48.708;9.290;2023-04-05T01:01:03;98338.53;;;-7.69;71.30
43741;BME280;29352;48.708;9.290;2023-04-05T01:03:42;98342.38;;;-7.90;71.32
43741;BME280;29352;48.708;9.290;2023-04-05T01:06:35;98336.59;;;-8.10;71.18
43741;BME280;29352;48.708;9.290;2023-04-05T01:11:58;98338.22;;;-7.78;71.50
43741;BME280;29352;48.708;9.290;2023-04-05T01:14:28;98331.47;;;-7.81;71.36
43741;BME280;29352;48.708;9.290;2023-04-05T01:16:54;98330.16;;;-8.02;71.86
43741;BME280;29352;48.708;9.290;2023-04-05T01:19:27;98321.72;;;-8.06;72.58
43741;BME280;29352;48.708;9.290;2023-04-05T01:22:03;98317.00;;;-7.99;71.70
43741;BME280;29352;48.708;9.290;2023-04-05T01:24:53;98318.72;;;-8.14;72.68
43741;BME280;29352;48.708;9.290;2023-04-05T01:30:57;98317.56;;;-8.24;71.12
43741;BME280;29352;48.708;9.290;2023-04-05T01:33:42;98312.38;;;-7.94;70.13
43741;BME280;29352;48.708;9.290;2023-04-05T01:36:23;98311.16;;;-8.03;70.14
43741;BME280;29352;48.708;9.290;2023-04-05T01:39:14;98306.38;;;-8.25;69.86
43741;BME280;29352;48.708;9.290;2023-04-05T01:41:44;98303.78;;;-8.25;69.56
43741;BME280;29352;48.708;9.290;2023-04-05T01:44:09;98299.28;;;-8.21;70.38
43741;BME280;29352;48.708;9.290;2023-04-05T01:46:35;98296.63;;;-8.05;71.20
43741;BME280;29352;48.708;9.290;2023-04-05T01:49:00;98298.72;;;-8.26;72.21
43741;BME280;29352;48.708;9.290;2023-04-05T01:51:26;98299.75;;;-8.15;70.92
43741;BME280;29352;48.708;9.290;2023-04-05T01:53:52;98297.16;;;-8.15;68.91
43741;BME280;29352;48.708;9.290;2023-04-05T01:56:17;98302.84;;;-8.24;70.86
43741;BME280;29352;48.708;9.290;2023-04-05T01:58:42;98297.91;;;-8.13;71.14
43741;BME280;29352;48.708;9.290;2023-04-05T02:01:08;98296.50;;;-8.18;71.11
43741;BME280;29352;48.708;9.290;2023-04-05T02:03:33;98296.19;;;-8.28;71.83
43741;BME280;29352;48.708;9.290;2023-04-05T02:05:59;98294.91;;;-8.21;73.33
43741;BME280;29352;48.708;9.290;2023-04-05T02:08:25;98296.19;;;-8.28;73.90
43741;BME280;29352;48.708;9.290;2023-04-05T02:10:52;98290.56;;;-8.20;74.14
43741;BME280;29352;48.708;9.290;2023-04-05T02:13:18;98288.28;;;-8.11;74.20
43741;BME280;29352;48.708;9.290;2023-04-05T02:15:49;98290.91;;;-8.41;75.46
43741;BME280;29352;48.708;9.290;2023-04-05T02:18:15;98281.06;;;-8.66;76.34
43741;BME280;29352;48.708;9.290;2023-04-05T02:20:51;98281.81;;;-8.79;76.26
43741;BME280;29352;48.708;9.290;2023-04-05T02:23:19;98286.91;;;-8.62;76.28
43741;BME280;29352;48.708;9.290;2023-04-05T02:25:45;98275.56;;;-8.75;74.70
43741;BME280;29352;48.708;9.290;2023-04-05T02:28:11;98278.25;;;-8.61;75.29
43741;BME280;29352;48.708;9.290;2023-04-05T02:30:36;98283.72;;;-8.51;75.63
43741;BME280;29352;48.708;9.290;2023-04-05T02:33:02;98281.19;;;-8.37;75.01
43741;BME280;29352;48.708;9.290;2023-04-05T02:35:28;98279.06;;;-8.61;73.47
43741;BME280;29352;48.708;9.290;2023-04-05T02:37:54;98275.41;;;-8.72;73.10
43741;BME280;29352;48.708;9.290;2023-04-05T02:40:20;98277.00;;;-8.70;73.66
43741;BME280;29352;48.708;9.290;2023-04-05T02:42:46;98265.53;;;-8.66;73.36
43741;BME280;29352;48.708;9.290;2023-04-05T02:45:12;98273.06;;;-8.77;74.49
43741;BME280;29352;48.708;9.290;2023-04-05T02:47:37;98275.31;;;-8.71;74.37
43741;BME280;29352;48.708;9.290;2023-04-05T02:50:03;98277.75;;;-8.68;73.99
43741;BME280;29352;48.708;9.290;2023-04-05T02:52:30;98285.00;;;-8.74;73.86
43741;BME280;29352;48.708;9.290;2023-04-05T02:54:56;98276.38;;;-8.59;74.18
43741;BME280;29352;48.708;9.290;2023-04-05T02:57:21;98272.56;;;-8.38;73.25
43741;BME280;29352;48.708;9.290;2023-04-05T02:59:47;98275.03;;;-8.50;73.49
43741;BME280;29352;48.708;9.290;2023-04-05T03:02:12;98267.84;;;-8.45;74.09
43741;BME280;29352;48.708;9.290;2023-04-05T03:04:37;98271.34;;;-8.46;74.78
43741;BME280;29352;48.708;9.290;2023-04-05T03:07:05;98267.94;;;-8.47;74.31
43741;BME280;29352;48.708;9.290;2023-04-05T03:09:32;98268.16;;;-8.36;74.30
43741;BME280;29352;48.708;9.290;2023-04-05T03:12:00;98265.31;;;-8.61;75.32
43741;BME280;29352;48.708;9.290;2023-04-05T03:14:30;98267.13;;;-8.79;76.44
43741;BME280;29352;48.708;9.290;2023-04-05T03:16:56;98263.59;;;-8.92;76.50
43741;BME280;29352;48.708;9.290;2023-04-05T03:19:23;98265.16;;;-8.90;76.44
43741;BME280;29352;48.708;9.290;2023-04-05T03:21:51;98269.22;;;-8.70;76.23
43741;BME280;29352;48.708;9.290;2023-04-05T03:24:17;98262.59;;;-8.60;75.71
43741;BME280;29352;48.708;9.290;2023-04-05T03:26:45;98262.59;;;-8.60;75.35
43741;BME280;29352;48.708;9.290;2023-04-05T03:29:11;98261.19;;;-8.65;75.29
43741;BME280;29352;48.708;9.290;2023-04-05T03:31:37;98263.88;;;-8.67;75.75
43741;BME280;29352;48.708;9.290;2023-04-05T03:34:03;98261.63;;;-8.73;74.70
43741;BME280;29352;48.708;9.290;2023-04-05T03:36:28;98260.59;;;-9.16;73.67
43741;BME280;29352;48.708;9.290;2023-04-05T03:39:08;98257.84;;;-9.13;75.38
43741;BME280;29352;48.708;9.290;2023-04-05T03:41:38;98254.06;;;-9.08;74.44
43741;BME280;29352;48.708;9.290;2023-04-05T03:44:06;98253.69;;;-8.70;74.21
43741;BME280;29352;48.708;9.290;2023-04-05T03:46:32;98264.00;;;-9.16;74.87
43741;BME280;29352;48.708;9.290;2023-04-05T03:48:59;98267.34;;;-8.98;75.54
43741;BME280;29352;48.708;9.290;2023-04-05T03:51:25;98254.47;;;-9.15;76.00
43741;BME280;29352;48.708;9.290;2023-04-05T03:53:51;98256.78;;;-8.79;75.35
43741;BME280;29352;48.708;9.290;2023-04-05T03:56:17;98259.06;;;-9.36;76.47
43741;BME280;29352;48.708;9.290;2023-04-05T03:58:43;98254.38;;;-9.45;74.99
43741;BME280;29352;48.708;9.290;2023-04-05T04:01:10;98257.41;;;-9.21;75.20
43741;BME280;29352;48.708;9.290;2023-04-05T04:03:36;98259.63;;;-9.31;74.04
43741;BME280;29352;48.708;9.290;2023-04-05T04:06:03;98255.22;;;-9.29;75.14
43741;BME280;29352;48.708;9.290;2023-04-05T04:08:29;98246.47;;;-9.26;75.49
43741;BME280;29352;48.708;9.290;2023-04-05T04:10:55;98253.97;;;-8.90;74.69
43741;BME280;29352;48.708;9.290;2023-04-05T04:13:20;98261.56;;;-9.35;75.18
43741;BME280;29352;48.708;9.290;2023-04-05T04:15:46;98261.81;;;-9.39;76.55
43741;BME280;29352;48.708;9.290;2023-04-05T04:18:11;98261.13;;;-9.43;76.16
43741;BME280;29352;48.708;9.290;2023-04-05T04:20:37;98255.88;;;-8.94;74.85
43741;BME280;29352;48.708;9.290;2023-04-05T04:23:03;98254.41;;;-8.82;74.62
43741;BME280;29352;48.708;9.290;2023-04-05T04:25:35;98260.91;;;-8.75;74.33
43741;BME280;29352;48.708;9.290;2023-04-05T04:28:03;98264.03;;;-8.70;74.29
43741;BME280;29352;48.708;9.290;2023-04-05T04:30:31;98271.50;;;-9.11;76.15
43741;BME280;29352;48.708;9.290;2023-04-05T04:33:02;98271.00;;;-9.34;74.79
43741;BME280;29352;48.708;9.290;2023-04-05T04:35:31;98266.78;;;-9.52;76.25
43741;BME280;29352;48.708;9.290;2023-04-05T04:38:04;98270.69;;;-9.61;76.02
43741;BME280;29352;48.708;9.290;2023-04-05T04:40:32;98269.72;;;-9.42;76.00
43741;BME280;29352;48.708;9.290;2023-04-05T04:43:14;98264.44;;;-9.57;75.97
43741;BME280;29352;48.708;9.290;2023-04-05T04:45:45;98260.41;;;-9.62;75.73
43741;BME280;29352;48.708;9.290;2023-04-05T04:48:13;98267.41;;;-9.15;75.40
43741;BME280;29352;48.708;9.290;2023-04-05T04:50:41;98265.38;;;-9.42;75.16
43741;BME280;29352;48.708;9.290;2023-04-05T04:53:09;98266.59;;;-9.65;75.10
43741;BME280;29352;48.708;9.290;2023-04-05T04:55:35;98265.88;;;-9.51;74.85
43741;BME280;29352;48.708;9.290;2023-04-05T04:58:01;98263.53;;;-9.56;76.11
43741;BME280;29352;48.708;9.290;2023-04-05T05:00:34;98270.06;;;-9.33;76.20
43741;BME280;29352;48.708;9.290;2023-04-05T05:03:01;98270.75;;;-9.29;76.09
43741;BME280;29352;48.708;9.290;2023-04-05T05:05:27;98273.09;;;-9.09;76.25
43741;BME280;29352;48.708;9.290;2023-04-05T05:07:52;98268.59;;;-8.43;74.86
43741;BME280;29352;48.708;9.290;2023-04-05T05:10:19;98265.13;;;-8.28;73.42
43741;BME280;29352;48.708;9.290;2023-04-05T05:12:45;98268.94;;;-7.75;71.55
43741;BME280;29352;48.708;9.290;2023-04-05T05:15:13;98259.91;;;-6.85;69.52
43741;BME280;29352;48.708;9.290;2023-04-05T05:17:38;98257.22;;;-6.56;67.67
43741;BME280;29352;48.708;9.290;2023-04-05T05:20:04;98261.81;;;-5.82;66.33
43741;BME280;29352;48.708;9.290;2023-04-05T05:22:34;98262.84;;;-5.72;65.70
43741;BME280;29352;48.708;9.290;2023-04-05T05:25:07;98263.03;;;-5.36;65.63
43741;BME280;29352;48.708;9.290;2023-04-05T05:27:34;98262.66;;;-4.69;63.63
43741;BME280;29352;48.708;9.290;2023-04-05T05:30:00;98263.50;;;-4.34;62.16
43741;BME280;29352;48.708;9.290;2023-04-05T05:32:25;98270.94;;;-4.40;62.26
43741;BME280;29352;48.708;9.290;2023-04-05T05:34:51;98266.94;;;-3.63;61.67
43741;BME280;29352;48.708;9.290;2023-04-05T05:37:16;98268.59;;;-3.28;59.07
43741;BME280;29352;48.708;9.290;2023-04-05T05:39:42;98261.47;;;-3.37;60.30
43741;BME280;29352;48.708;9.290;2023-04-05T05:42:11;98259.00;;;-2.08;56.92
43741;BME280;29352;48.708;9.290;2023-04-05T05:44:36;98255.56;;;-1.36;55.54
43741;BME280;29352;48.708;9.290;2023-04-05T05:47:03;98258.25;;;-1.17;54.36
43741;BME280;29352;48.708;9.290;2023-04-05T05:49:29;98265.72;;;-1.12;54.38
43741;BME280;29352;48.708;9.290;2023-04-05T05:51:55;98259.78;;;-1.76;54.95
43741;BME280;29352;48.708;9.290;2023-04-05T05:54:21;98261.03;;;-1.70;54.35
43741;BME280;29352;48.708;9.290;2023-04-05T05:56:47;98255.38;;;-1.45;54.23
43741;BME280;29352;48.708;9.290;2023-04-05T05:59:12;98253.41;;;-0.81;53.89
43741;BME280;29352;48.708;9.290;2023-04-05T06:01:37;98257.94;;;0.23;51.88
43741;BME280;29352;48.708;9.290;2023-04-05T06:04:09;98255.38;;;0.98;49.76
43741;BME280;29352;48.708;9.290;2023-04-05T06:06:34;98253.03;;;1.76;47.97
43741;BME280;29352;48.708;9.290;2023-04-05T06:09:00;98254.28;;;0.91;49.50
43741;BME280;29352;48.708;9.290;2023-04-05T06:11:26;98263.75;;;0.08;51.97
43741;BME280;29352;48.708;9.290;2023-04-05T06:13:52;98253.44;;;2.25;47.99
43741;BME280;29352;48.708;9.290;2023-04-05T06:16:20;98250.22;;;2.13;48.07
43741;BME280;29352;48.708;9.290;2023-04-05T06:18:45;98270.53;;;0.00;51.18
43741;BME280;29352;48.708;9.290;2023-04-05T06:21:12;98263.31;;;0.41;50.35
43741;BME280;29352;48.708;9.290;2023-04-05T06:23:38;98263.66;;;1.21;48.36
43741;BME280;29352;48.708;9.290;2023-04-05T06:26:06;98259.81;;;1.61;48.83
43741;BME280;29352;48.708;9.290;2023-04-05T06:28:32;98260.22;;;1.38;48.62
43741;BME280;29352;48.708;9.290;2023-04-05T06:30:57;98256.56;;;2.03;48.15
43741;BME280;29352;48.708;9.290;2023-04-05T06:33:24;98256.63;;;1.39;48.83
43741;BME280;29352;48.708;9.290;2023-04-05T06:35:50;98258.59;;;2.09;46.91
43741;BME280;29352;48.708;9.290;2023-04-05T06:38:15;98261.91;;;1.75;47.74
43741;BME280;29352;48.708;9.290;2023-04-05T06:40:40;98260.97;;;3.15;45.95
43741;BME280;29352;48.708;9.290;2023-04-05T06:43:07;98261.47;;;3.18;46.02
43741;BME280;29352;48.708;9.290;2023-04-05T06:45:35;98258.28;;;4.63;43.50
43741;BME280;29352;48.708;9.290;2023-04-05T06:48:02;98254.03;;;4.13;43.98
43741;BME280;29352;48.708;9.290;2023-04-05T06:50:27;98253.66;;;5.67;41.58
43741;BME280;29352;48.708;9.290;2023-04-05T06:52:53;98260.47;;;4.52;42.84
43741;BME280;29352;48.708;9.290;2023-04-05T06:55:18;98253.75;;;4.72;43.54
43741;BME280;29352;48.708;9.290;2023-04-05T06:57:43;98259.31;;;4.05;44.85
43741;BME280;29352;48.708;9.290;2023-04-05T07:00:09;98252.69;;;5.60;42.36
43741;BME280;29352;48.708;9.290;2023-04-05T07:02:37;98253.66;;;4.49;43.14
43741;BME280;29352;48.708;9.290;2023-04-05T07:05:03;98260.78;;;4.32;42.50
43741;BME280;29352;48.708;9.290;2023-04-05T07:07:33;98258.28;;;4.63;43.01
43741;BME280;29352;48.708;9.290;2023-04-05T07:10:04;98265.53;;;4.61;43.30
43741;BME280;29352;48.708;9.290;2023-04-05T07:12:30;98267.19;;;4.54;43.73
43741;BME280;29352;48.708;9.290;2023-04-05T07:14:58;98257.78;;;6.45;40.47
43741;BME280;29352;48.708;9.290;2023-04-05T07:17:24;98251.16;;;6.79;40.65
43741;BME280;29352;48.708;9.290;2023-04-05T07:19:50;98250.31;;;7.23;39.11
43741;BME280;29352;48.708;9.290;2023-04-05T07:22:15;98253.53;;;6.74;40.34
43741;BME280;29352;48.708;9.290;2023-04-05T07:24:41;98262.38;;;6.36;40.48
43741;BME280;29352;48.708;9.290;2023-04-05T07:27:08;98252.72;;;7.03;40.00
43741;BME280;29352;48.708;9.290;2023-04-05T07:29:34;98257.78;;;5.69;40.69
43741;BME280;29352;48.708;9.290;2023-04-05T07:32:02;98250.16;;;5.12;40.50
43741;BME280;29352;48.708;9.290;2023-04-05T07:34:28;98251.00;;;6.28;39.25
43741;BME280;29352;48.708;9.290;2023-04-05T07:36:53;98245.31;;;7.49;37.70
43741;BME280;29352;48.708;9.290;2023-04-05T07:39:18;98259.28;;;4.54;40.56
43741;BME280;29352;48.708;9.290;2023-04-05T07:41:45;98259.63;;;3.69;41.23
43741;BME280;29352;48.708;9.290;2023-04-05T07:44:10;98250.00;;;5.91;40.15
43741;BME280;29352;48.708;9.290;2023-04-05T07:46:36;98249.78;;;6.83;38.68
43741;BME280;29352;48.708;9.290;2023-04-05T07:49:02;98243.09;;;7.53;37.05
43741;BME280;29352;48.708;9.290;2023-04-05T07:51:28;98256.78;;;7.93;36.53
43741;BME280;29352;48.708;9.290;2023-04-05T07:53:53;98244.06;;;7.30;37.53
43741;BME280;29352;48.708;9.290;2023-04-05T07:56:18;98255.75;;;6.85;37.60
43741;BME280;29352;48.708;9.290;2023-04-05T07:58:44;98253.16;;;7.06;37.60
43741;BME280;29352;48.708;9.290;2023-04-05T08:01:09;98247.53;;;7.31;37.29
43741;BME280;29352;48.708;9.290;2023-04-05T08:03:37;98246.13;;;7.35;37.11
43741;BME280;29352;48.708;9.290;2023-04-05T08:06:14;98254.03;;;6.77;37.45
43741;BME280;29352;48.708;9.290;2023-04-05T08:08:44;98253.00;;;6.11;39.66
43741;BME280;29352;48.708;9.290;2023-04-05T08:11:10;98256.72;;;6.39;37.29
43741;BME280;29352;48.708;9.290;2023-04-05T08:13:35;98253.50;;;7.54;36.83
43741;BME280;29352;48.708;9.290;2023-04-05T08:16:04;98257.44;;;7.22;36.78
43741;BME280;29352;48.708;9.290;2023-04-05T08:18:30;98252.41;;;6.38;38.15
43741;BME280;29352;48.708;9.290;2023-04-05T08:20:56;98246.06;;;7.65;36.40
43741;BME280;29352;48.708;9.290;2023-04-05T08:23:22;98243.13;;;8.24;36.06
43741;BME280;29352;48.708;9.290;2023-04-05T08:25:48;98242.84;;;6.82;36.96
43741;BME280;29352;48.708;9.290;2023-04-05T08:28:14;98244.63;;;6.52;37.72
43741;BME280;29352;48.708;9.290;2023-04-05T08:30:40;98243.94;;;6.05;37.19
43741;BME280;29352;48.708;9.290;2023-04-05T08:33:06;98237.59;;;7.18;37.03
43741;BME280;29352;48.708;9.290;2023-04-05T08:35:35;98245.25;;;6.77;37.23
43741;BME280;29352;48.708;9.290;2023-04-05T08:38:01;98244.72;;;6.58;38.09
43741;BME280;29352;48.708;9.290;2023-04-05T08:40:38;98237.56;;;7.33;37.72
43741;BME280;29352;48.708;9.290;2023-04-05T08:43:27;98240.94;;;6.23;36.75
43741;BME280;29352;48.708;9.290;2023-04-05T08:46:02;98239.88;;;5.95;36.54
43741;BME280;29352;48.708;9.290;2023-04-05T08:48:34;98249.84;;;5.07;37.46
43741;BME280;29352;48.708;9.290;2023-04-05T08:51:05;98253.94;;;5.18;37.09
43741;BME280;29352;48.708;9.290;2023-04-05T08:53:33;98249.63;;;4.78;36.96
43741;BME280;29352;48.708;9.290;2023-04-05T08:55:59;98248.94;;;4.84;37.97
43741;BME280;29352;48.708;9.290;2023-04-05T08:58:25;98251.97;;;4.72;38.23
43741;BME280;29352;48.708;9.290;2023-04-05T09:00:54;98249.47;;;4.71;37.53
43741;BME280;29352;48.708;9.290;2023-04-05T09:03:27;98251.88;;;4.17;38.11
43741;BME280;29352;48.708;9.290;2023-04-05T09:05:58;98239.41;;;5.45;38.90
43741;BME280;29352;48.708;9.290;2023-04-05T09:08:25;98244.38;;;5.71;37.02
43741;BME280;29352;48.708;9.290;2023-04-05T09:10:51;98236.00;;;5.59;37.83
43741;BME280;29352;48.708;9.290;2023-04-05T09:13:17;98248.50;;;3.25;37.64
43741;BME280;29352;48.708;9.290;2023-04-05T09:15:43;98243.09;;;5.36;36.69
43741;BME280;29352;48.708;9.290;2023-04-05T09:18:10;98244.16;;;5.50;36.44
43741;BME280;29352;48.708;9.290;2023-04-05T09:20:37;98248.28;;;4.90;36.85
43741;BME280;29352;48.708;9.290;2023-04-05T09:23:02;98251.56;;;4.12;37.44
43741;BME280;29352;48.708;9.290;2023-04-05T09:27:58;98238.44;;;5.07;36.35
43741;BME280;29352;48.708;9.290;2023-04-05T09:30:26;98234.28;;;4.73;37.17
43741;BME280;29352;48.708;9.290;2023-04-05T09:32:55;98236.50;;;4.92;36.62
43741;BME280;29352;48.708;9.290;2023-04-05T09:35:23;98238.50;;;5.53;36.03
43741;BME280;29352;48.708;9.290;2023-04-05T09:37:54;98229.41;;;6.16;36.69
43741;BME280;29352;48.708;9.290;2023-04-05T09:40:22;98231.56;;;6.50;35.74
43741;BME280;29352;48.708;9.290;2023-04-05T09:42:48;98233.88;;;6.98;37.04
43741;BME280;29352;48.708;9.290;2023-04-05T09:45:16;98234.59;;;4.78;36.31
43741;BME280;29352;48.708;9.290;2023-04-05T09:47:55;98244.78;;;3.76;37.11
43741;BME280;29352;48.708;9.290;2023-04-05T09:50:22;98229.47;;;5.70;36.49
43741;BME280;29352;48.708;9.290;2023-04-05T09:52:48;98223.34;;;6.60;35.58
43741;BME280;29352;48.708;9.290;2023-04-05T09:55:25;98232.19;;;5.31;35.49
43741;BME280;29352;48.708;9.290;2023-04-05T09:57:52;98218.97;;;6.67;35.49
43741;BME280;29352;48.708;9.290;2023-04-05T10:00:20;98213.88;;;6.28;35.78
43741;BME280;29352;48.708;9.290;2023-04-05T10:02:52;98219.38;;;4.72;36.93
43741;BME280;29352;48.708;9.290;2023-04-05T10:05:23;98213.81;;;4.67;37.10
43741;BME280;29352;48.708;9.290;2023-04-05T10:07:54;98211.84;;;6.00;35.78
43741;BME280;29352;48.708;9.290;2023-04-05T10:10:21;98231.78;;;2.40;39.12
43741;BME280;29352;48.708;9.290;2023-04-05T10:12:49;98224.53;;;3.18;39.80
43741;BME280;29352;48.708;9.290;2023-04-05T10:15:16;98204.28;;;4.89;37.65
43741;BME280;29352;48.708;9.290;2023-04-05T10:18:02;98211.75;;;5.71;36.72
43741;BME280;29352;48.708;9.290;2023-04-05T10:20:38;98214.41;;;3.64;37.49
43741;BME280;29352;48.708;9.290;2023-04-05T10:23:34;98207.56;;;4.43;37.56
43741;BME280;29352;48.708;9.290;2023-04-05T10:26:16;98209.03;;;4.54;37.79
43741;BME280;29352;48.708;9.290;2023-04-05T10:29:00;98214.19;;;4.39;37.36
43741;BME280;29352;48.708;9.290;2023-04-05T10:31:49;98198.66;;;4.92;37.06
43741;BME280;29352;48.708;9.290;2023-04-05T10:34:30;98197.50;;;4.55;36.78
43741;BME280;29352;48.708;9.290;2023-04-05T10:37:05;98210.88;;;4.37;37.13
43741;BME280;29352;48.708;9.290;2023-04-05T10:39:44;98210.22;;;4.43;37.09
43741;BME280;29352;48.708;9.290;2023-04-05T10:42:21;98193.72;;;5.43;37.36
43741;BME280;29352;48.708;9.290;2023-04-05T10:44:58;98192.63;;;6.21;37.54
43741;BME280;29352;48.708;9.290;2023-04-05T10:47:30;98191.91;;;6.42;37.88
43741;BME280;29352;48.708;9.290;2023-04-05T10:50:08;98180.84;;;7.19;37.91
43741;BME280;29352;48.708;9.290;2023-04-05T10:52:41;98179.75;;;6.77;35.89
43741;BME280;29352;48.708;9.290;2023-04-05T10:55:09;98179.06;;;6.90;37.02
43741;BME280;29352;48.708;9.290;2023-04-05T10:57:37;98181.25;;;7.01;36.43
43741;BME280;29352;48.708;9.290;2023-04-05T11:00:04;98184.25;;;7.56;35.77
43741;BME280;29352;48.708;9.290;2023-04-05T11:02:31;98173.66;;;8.68;35.97
43741;BME280;29352;48.708;9.290;2023-04-05T11:05:02;98177.63;;;6.43;35.73
43741;BME280;29352;48.708;9.290;2023-04-05T11:07:42;98189.13;;;6.21;36.14
43741;BME280;29352;48.708;9.290;2023-04-05T11:10:17;98186.28;;;5.69;36.32
43741;BME280;29352;48.708;9.290;2023-04-05T11:15:27;98172.56;;;5.43;36.56
43741;BME280;29352;48.708;9.290;2023-04-05T11:23:22;98172.66;;;4.00;38.08
43741;BME280;29352;48.708;9.290;2023-04-05T11:26:02;98170.63;;;5.14;37.75
43741;BME280;29352;48.708;9.290;2023-04-05T11:28:34;98163.25;;;3.82;37.42
43741;BME280;29352;48.708;9.290;2023-04-05T11:31:14;98171.22;;;3.65;37.46
43741;BME280;29352;48.708;9.290;2023-04-05T11:36:31;98147.19;;;5.03;37.16
43741;BME280;29352;48.708;9.290;2023-04-05T11:42:10;98153.06;;;3.62;37.88
43741;BME280;29352;48.708;9.290;2023-04-05T11:44:43;98149.84;;;3.01;39.77
43741;BME280;29352;48.708;9.290;2023-04-05T11:47:13;98156.50;;;3.46;38.03
43741;BME280;29352;48.708;9.290;2023-04-05T11:49:41;98143.16;;;3.72;38.31
43741;BME280;29352;48.708;9.290;2023-04-05T11:52:13;98144.31;;;2.70;39.69
43741;BME280;29352;48.708;9.290;2023-04-05T11:54:41;98148.28;;;2.74;39.70
43741;BME280;29352;48.708;9.290;2023-04-05T11:57:12;98144.13;;;3.79;37.65
43741;BME280;29352;48.708;9.290;2023-04-05T11:59:41;98146.00;;;4.26;38.10
43741;BME280;29352;48.708;9.290;2023-04-05T12:02:06;98144.09;;;5.45;36.18
43741;BME280;29352;48.708;9.290;2023-04-05T12:04:34;98137.66;;;6.00;34.91
43741;BME280;29352;48.708;9.290;2023-04-05T12:07:17;98137.66;;;4.62;36.42
43741;BME280;29352;48.708;9.290;2023-04-05T12:10:04;98133.31;;;5.01;37.14
43741;BME280;29352;48.708;9.290;2023-04-05T12:12:42;98131.91;;;5.97;38.43
43741;BME280;29352;48.708;9.290;2023-04-05T12:15:14;98118.31;;;6.14;37.22
43741;BME280;29352;48.708;9.290;2023-04-05T12:20:20;98115.44;;;7.33;35.36
43741;BME280;29352;48.708;9.290;2023-04-05T12:22:51;98112.44;;;7.21;35.31
43741;BME280;29352;48.708;9.290;2023-04-05T12:25:19;98109.81;;;6.04;34.98
43741;BME280;29352;48.708;9.290;2023-04-05T12:27:45;98103.84;;;6.17;36.35
43741;BME280;29352;48.708;9.290;2023-04-05T12:30:14;98110.69;;;6.41;36.06
43741;BME280;29352;48.708;9.290;2023-04-05T12:32:52;98108.81;;;6.35;35.26
43741;BME280;29352;48.708;9.290;2023-04-05T12:37:57;98105.44;;;4.90;36.91
43741;BME280;29352;48.708;9.290;2023-04-05T12:40:26;98099.44;;;5.42;36.06
43741;BME280;29352;48.708;9.290;2023-04-05T12:42:51;98097.50;;;5.36;36.17
43741;BME280;29352;48.708;9.290;2023-04-05T12:45:17;98101.81;;;5.14;36.66
43741;BME280;29352;48.708;9.290;2023-04-05T12:47:57;98103.56;;;3.72;37.39
43741;BME280;29352;48.708;9.290;2023-04-05T12:50:28;98089.69;;;4.73;38.06
43741;BME280;29352;48.708;9.290;2023-04-05T12:52:59;98085.34;;;5.27;38.02
43741;BME280;29352;48.708;9.290;2023-04-05T12:55:30;98080.06;;;5.04;38.10
43741;BME280;29352;48.708;9.290;2023-04-05T12:57:59;98085.13;;;5.51;36.66
43741;BME280;29352;48.708;9.290;2023-04-05T13:00:28;98088.25;;;4.15;37.11
43741;BME280;29352;48.708;9.290;2023-04-05T13:02:56;98085.13;;;4.59;37.25
43741;BME280;29352;48.708;9.290;2023-04-05T13:05:25;98080.03;;;4.81;37.11
43741;BME280;29352;48.708;9.290;2023-04-05T13:07:55;98076.75;;;4.79;37.22
43741;BME280;29352;48.708;9.290;2023-04-05T13:10:22;98078.59;;;3.91;38.45
43741;BME280;29352;48.708;9.290;2023-04-05T13:12:49;98072.59;;;4.53;37.42
43741;BME280;29352;48.708;9.290;2023-04-05T13:15:16;98074.75;;;4.02;37.14
43741;BME280;29352;48.708;9.290;2023-04-05T13:17:43;98068.66;;;4.41;37.73
43741;BME280;29352;48.708;9.290;2023-04-05T13:20:10;98068.28;;;5.29;36.97
43741;BME280;29352;48.708;9.290;2023-04-05T13:22:37;98059.81;;;4.65;38.04
43741;BME280;29352;48.708;9.290;2023-04-05T13:25:04;98065.69;;;4.04;37.49
43741;BME280;29352;48.708;9.290;2023-04-05T13:27:30;98060.63;;;4.96;37.33
43741;BME280;29352;48.708;9.290;2023-04-05T13:29:56;98052.78;;;5.41;37.25
43741;BME280;29352;48.708;9.290;2023-04-05T13:32:21;98052.72;;;5.87;36.79
43741;BME280;29352;48.708;9.290;2023-04-05T13:34:47;98046.41;;;5.88;36.17
43741;BME280;29352;48.708;9.290;2023-04-05T13:37:13;98053.28;;;5.07;36.67
43741;BME280;29352;48.708;9.290;2023-04-05T13:39:39;98040.91;;;5.22;38.01
43741;BME280;29352;48.708;9.290;2023-04-05T13:42:05;98046.63;;;5.63;37.64